Home > Products > Valid Products > TAF

000
FTUS41 KOKX 201100
TAFISP
TAF
KISP 201121Z 2012/2112 06007KT P6SM BKN250
     FM201500 09011KT P6SM SCT250
     FM201900 12012KT P6SM FEW250
     FM202300 11008KT P6SM SKC
     FM210200 VRB03KT P6SM SKC=



000
FTUS41 KOKX 201100
TAFLGA
TAF
KLGA 201121Z 2012/2112 07011KT P6SM BKN250
     FM201700 09011KT P6SM SCT250
     FM202000 12011KT P6SM FEW250
     FM210200 08006KT P6SM SKC
     FM210500 VRB04KT P6SM SKC=



000
FTUS41 KOKX 201100
TAFSWF
TAF
KSWF 201121Z 2012/2118 06007KT P6SM SCT250
     FM201600 09008KT P6SM SKC
     FM201800 13008KT P6SM SKC
     FM202200 16006KT P6SM SKC
     FM210000 VRB03KT P6SM SKC
      AMD NOT SKED=



000
FTUS41 KOKX 201100
TAFBDR
TAF
KBDR 201121Z 2012/2112 04007KT P6SM BKN250
     FM201400 07011KT P6SM SCT250
     FM201700 10010KT P6SM FEW250
     FM210200 VRB04KT P6SM SKC=



000
FTUS41 KOKX 201100
TAFTEB
TAF
KTEB 201121Z 2012/2112 VRB04KT P6SM BKN250
     FM201400 09008KT P6SM SCT250
     FM201800 12008KT P6SM FEW250
     FM210100 VRB03KT P6SM SKC=



000
FTUS41 KOKX 201100
TAFGON
TAF
KGON 201121Z 2012/2112 04007KT P6SM BKN250
     FM201500 09011KT P6SM SCT250
     FM201800 13012KT P6SM FEW250
     FM210000 09007KT P6SM SKC
     FM210300 VRB04KT P6SM SKC=



000
FTUS41 KOKX 201100
TAFEWR
TAF
KEWR 201121Z 2012/2118 06011KT P6SM BKN250
     FM201700 09009KT P6SM SCT250
     FM202000 11009KT P6SM FEW250
     FM210200 09006KT P6SM SKC
     FM210400 VRB04KT P6SM SKC=



000
FTUS41 KOKX 201100
TAFJFK
TAF
KJFK 201121Z 2012/2118 06010KT P6SM BKN250
     FM201400 08011KT P6SM SCT250
     FM201900 12012KT P6SM FEW250
     FM210200 10006KT P6SM SKC
     FM210400 VRB03KT P6SM SKC
     FM211500 08007KT P6SM SKC
     FM211700 VRB04KT P6SM SKC=



000
FTUS41 KOKX 200800 AAA
TAFEWR
TAF AMD
KEWR 200838Z 2009/2112 05011KT P6SM BKN250
     FM201300 08011KT P6SM SCT250
     FM201900 12009KT P6SM SKC
     FM210200 09006KT P6SM SKC
     FM210500 VRB03KT P6SM FEW250=



000
FTUS41 KOKX 200800 AAA
TAFBDR
TAF AMD
KBDR 200838Z 2009/2106 05009KT P6SM BKN250
     FM201300 08012KT P6SM SCT250
     FM201900 11011KT P6SM SKC
     FM210200 VRB04KT P6SM SKC=



000
FTUS41 KOKX 200800 AAA
TAFJFK
TAF AMD
KJFK 200838Z 2009/2112 06011KT P6SM BKN250
     FM201300 08012KT P6SM SCT250
     FM201900 12013KT P6SM SKC
     FM210200 09006KT P6SM SKC
     FM210700 VRB03KT P6SM FEW250=



000
FTUS41 KOKX 200800 AAA
TAFTEB
TAF AMD
KTEB 200838Z 2009/2106 05006KT P6SM BKN250
     FM201300 08009KT P6SM SCT250
     FM201900 13008KT P6SM SKC
     FM210100 VRB03KT P6SM SKC=



000
FTUS41 KOKX 200800 AAA
TAFGON
TAF AMD
KGON 200838Z 2009/2106 04007KT P6SM BKN250
     FM201300 08012KT P6SM SCT250
     FM201800 12011KT P6SM SKC
     FM210200 VRB04KT P6SM SKC=



000
FTUS41 KOKX 200800 AAA
TAFISP
TAF AMD
KISP 200838Z 2009/2106 07008KT P6SM BKN250
     FM201400 09012KT P6SM SCT250
     FM201800 12013KT P6SM SKC
     FM202300 12008KT P6SM SKC
     FM210200 VRB04KT P6SM SKC=



000
FTUS41 KOKX 200800 AAA
TAFLGA
TAF AMD
KLGA 200838Z 2009/2106 05012KT P6SM BKN250
     FM201300 08011KT P6SM SCT250
     FM202000 12011KT P6SM SKC
     FM210200 08006KT P6SM SKC=



000
FTUS41 KOKX 200500
TAFBDR
TAF
KBDR 200528Z 2006/2106 05011KT P6SM SCT250
     FM201300 08012KT P6SM SKC
     FM201900 11011KT P6SM SKC
     FM210200 VRB04KT P6SM SKC=



000
FTUS41 KOKX 200500
TAFLGA
TAF
KLGA 200528Z 2006/2106 05012KT P6SM SCT250
     FM201300 08011KT P6SM SKC
     FM202000 12011KT P6SM SKC
     FM210200 08006KT P6SM SKC=



000
FTUS41 KOKX 200500
TAFISP
TAF
KISP 200528Z 2006/2106 04009KT P6SM SCT250
     FM201300 08012KT P6SM SKC
     FM201800 12013KT P6SM SKC
     FM202300 12008KT P6SM SKC
     FM210200 VRB04KT P6SM SKC=



000
FTUS41 KOKX 200500
TAFTEB
TAF
KTEB 200528Z 2006/2106 04006KT P6SM SCT250
     FM201300 08009KT P6SM SKC
     FM201900 13008KT P6SM SKC
     FM210100 VRB03KT P6SM SKC=



000
FTUS41 KOKX 200500
TAFSWF
TAF
KSWF 200528Z 2006/2112 07008KT P6SM SCT250
     FM200900 VRB05KT P6SM SKC
     FM201300 09008KT P6SM SKC
     FM201600 12008KT P6SM SKC
     FM202200 16006KT P6SM SKC
     FM210100 VRB02KT P6SM SKC
      AMD NOT SKED=



000
FTUS41 KOKX 200500
TAFGON
TAF
KGON 200528Z 2006/2106 VRB05KT P6SM SCT250
     FM200800 05009KT P6SM SCT250
     FM201300 08012KT P6SM SKC
     FM201800 12011KT P6SM SKC
     FM210200 VRB04KT P6SM SKC=



000
FTUS41 KOKX 200500
TAFEWR
TAF
KEWR 200528Z 2006/2112 04012KT P6SM SCT250
     FM201300 08011KT P6SM SKC
     FM201900 12009KT P6SM SKC
     FM210200 09006KT P6SM SKC
     FM210500 VRB03KT P6SM FEW250=



000
FTUS41 KOKX 200500
TAFJFK
TAF
KJFK 200528Z 2006/2112 04011KT P6SM SCT250
     FM201300 08012KT P6SM SKC
     FM201900 12013KT P6SM SKC
     FM210200 09006KT P6SM SKC
     FM210700 VRB03KT P6SM FEW250=



000
FTUS41 KOKX 200200 AAA
TAFISP
TAF AMD
KISP 200240Z 2003/2024 01008KT P6SM BKN250
     FM200400 04008KT P6SM BKN250
     FM201300 07010KT P6SM SKC
     FM201700 11012KT P6SM SKC
     FM202300 12008KT P6SM SKC=



000
FTUS41 KOKX 200200 AAA
TAFLGA
TAF AMD
KLGA 200240Z 2003/2024 04010KT P6SM BKN250
     FM200700 06008KT P6SM SKC
     FM201300 06010KT P6SM SKC
     FM201700 10010KT P6SM SKC
     FM202000 14012KT P6SM SKC=



000
FTUS41 KOKX 200200 AAA
TAFJFK
TAF AMD
KJFK 200240Z 2003/2106 03008KT P6SM BKN250
     FM200800 05008KT P6SM SKC
     FM201200 06010KT P6SM SKC
     FM201600 10010KT P6SM SKC
     FM202000 13012KT P6SM SKC
     FM210100 12007KT P6SM FEW250=



000
FTUS41 KOKX 200200 AAA
TAFTEB
TAF AMD
KTEB 200240Z 2003/2024 02006KT P6SM BKN250
     FM201200 05006KT P6SM SKC
     FM201600 10008KT P6SM SKC
     FM202000 14008KT P6SM SKC=



000
FTUS41 KOKX 200200 AAA
TAFEWR
TAF AMD
KEWR 200240Z 2003/2106 03011KT P6SM BKN250
     FM200500 03009KT P6SM BKN250
     FM201200 06009KT P6SM SKC
     FM201700 10009KT P6SM SKC
     FM202000 13009KT P6SM SKC=



000
FTUS41 KOKX 200200 AAA
TAFGON
TAF AMD
KGON 200240Z 2003/2024 04008KT P6SM BKN250
     FM201500 09010KT P6SM SKC
     FM201800 14010KT P6SM SKC
     FM202300 12007KT P6SM SKC=



000
FTUS41 KOKX 200200 AAA
TAFBDR
TAF AMD
KBDR 200240Z 2003/2024 36007KT P6SM BKN250
     FM200400 04009KT P6SM BKN250
     FM201300 07010KT P6SM SKC
     FM201700 11012KT P6SM SKC
     FM202300 12008KT P6SM SKC=



000
FTUS41 KOKX 192300 RRA
TAFSWF
TAF
KSWF 192354Z 2000/2106 03010KT P6SM BKN250
     FM200300 VRB04KT P6SM SCT250
     FM201200 09005KT P6SM SKC
     FM201800 14007KT P6SM SKC
     FM210000 VRB03KT P6SM FEW250
      AMD NOT SKED=



000
FTUS41 KOKX 192300 RRA
TAFGON
TAF
KGON 192354Z 2000/2024 36008KT P6SM BKN250
     FM200300 03006KT P6SM BKN250
     FM201500 09010KT P6SM SKC
     FM201800 14010KT P6SM SKC
     FM202300 12007KT P6SM SKC=



000
FTUS41 KOKX 192300 RRA
TAFBDR
TAF
KBDR 192354Z 2000/2024 36010KT P6SM BKN250
     FM200200 04009KT P6SM BKN250
     FM201300 07010KT P6SM SKC
     FM201700 11012KT P6SM SKC
     FM202300 12008KT P6SM SKC=



000
FTUS41 KOKX 192300 RRA
TAFISP
TAF
KISP 192345Z 2000/2024 01008KT P6SM BKN250
     FM200300 04008KT P6SM BKN250
     FM201300 07010KT P6SM SKC
     FM201700 11012KT P6SM SKC
     FM202300 12008KT P6SM SKC=



000
FTUS41 KOKX 192300
TAFJFK
TAF
KJFK 192339Z 2000/2106 19006KT P6SM BKN250
     FM200100 02008KT P6SM BKN250
     FM200800 04008KT P6SM SKC
     FM201200 06010KT P6SM SKC
     FM201600 10010KT P6SM SKC
     FM202000 13012KT P6SM SKC
     FM210100 12007KT P6SM FEW250=



000
FTUS41 KOKX 192300
TAFTEB
TAF
KTEB 192339Z 2000/2024 02006KT P6SM BKN250
     FM201200 05006KT P6SM SKC
     FM201600 10008KT P6SM SKC
     FM202000 14008KT P6SM SKC=



000
FTUS41 KOKX 192300
TAFEWR
TAF
KEWR 192339Z 2000/2106 03009KT P6SM BKN250
      TEMPO 2000/2001 15008KT
     FM201200 06009KT P6SM SKC
     FM201700 10009KT P6SM SKC
     FM202000 13009KT P6SM SKC=



000
FTUS41 KOKX 192300
TAFLGA
TAF
KLGA 192339Z 2000/2024 06007KT P6SM BKN250
     FM201300 06010KT P6SM SKC
     FM201700 10010KT P6SM SKC
     FM202000 14012KT P6SM SKC=



000
FTUS41 KOKX 192200 CCA
TAFJFK
TAF COR
KJFK 192259Z 1923/2024 17008KT P6SM BKN250
     FM200100 02010KT P6SM SCT250
     FM201300 06008KT P6SM SKC
     FM201800 11010KT P6SM SKC=



000
FTUS41 KOKX 192200 AAB
TAFEWR
TAF AMD
KEWR 192250Z 1923/2024 36009KT P6SM BKN250
      TEMPO 1923/2001 15008KT
     FM200500 04009KT P6SM SKC
     FM201400 07008KT P6SM SKC
     FM201800 11010KT P6SM SKC=



000
FTUS41 KOKX 192200 AAB
TAFJFK
TAF AMD
KJFK 192237Z 1923/2024 17008KT P6SM BKN250
     FM200000 02010KT P6SM SCT250
     FM201300 06008KT P6SM SKC
     FM201800 11010KT P6SM SKC=



000
FTUS41 KOKX 192000 AAA
TAFSWF
TAF AMD
KSWF 192036Z 1921/2024 02012G19KT P6SM BKN250
     FM192300 01010KT P6SM SCT250
     FM200300 VRB05KT P6SM SKC
     FM201800 13007KT P6SM SKC
      AMD NOT SKED=



000
FTUS41 KOKX 192000 AAA
TAFTEB
TAF AMD
KTEB 192036Z 1921/2018 02012G18KT P6SM BKN250
     FM192200 02009KT P6SM BKN250
     FM200500 VRB05KT P6SM SKC
     FM201400 08008KT P6SM SKC=



000
FTUS41 KOKX 192000 AAA
TAFBDR
TAF AMD
KBDR 192036Z 1921/2018 36012G18KT P6SM BKN250
     FM192200 36010KT P6SM BKN250
     FM200300 04007KT P6SM SKC
     FM201500 09010KT P6SM SKC=



000
FTUS41 KOKX 192000 AAA
TAFJFK
TAF AMD
KJFK 192036Z 1921/2024 36011G17KT P6SM BKN250
     FM192300 36013KT P6SM BKN250
     FM200400 03010KT P6SM SKC
     FM201300 06008KT P6SM SKC
     FM201800 11010KT P6SM SKC=



000
FTUS41 KOKX 192000 AAA
TAFLGA
TAF AMD
KLGA 192036Z 1921/2018 36010G16KT P6SM BKN250
     FM192300 01010KT P6SM BKN250
     FM200400 04009KT P6SM SKC
     FM201500 07012KT P6SM SKC=



000
FTUS41 KOKX 192000 AAA
TAFEWR
TAF AMD
KEWR 192036Z 1921/2024 36014G21KT P6SM BKN250
     FM192300 01013KT P6SM BKN250
     FM200500 04009KT P6SM SKC
     FM201400 07008KT P6SM SKC
     FM201800 11010KT P6SM SKC=



000
FTUS41 KOKX 192000 AAA
TAFISP
TAF AMD
KISP 192036Z 1921/2018 35013G19KT P6SM BKN250
     FM192300 01010KT P6SM BKN250
     FM200500 04008KT P6SM SKC
     FM201500 08011KT P6SM SKC=



000
FTUS41 KOKX 192000 AAA
TAFGON
TAF AMD
KGON 192036Z 1921/2018 36015G23KT P6SM BKN250
     FM192200 36012KT P6SM BKN250
     FM200500 03008KT P6SM SKC
     FM201500 09010KT P6SM SKC=



000
FTUS41 KOKX 191700
TAFLGA
TAF
KLGA 191724Z 1918/2018 35010G17KT P6SM SCT250
     FM192300 36010KT P6SM FEW250
     FM200400 03009KT P6SM SKC
     FM201500 07012KT P6SM SKC=



000
FTUS41 KOKX 191700
TAFJFK
TAF
KJFK 191724Z 1918/2024 36011G17KT P6SM SCT250
     FM192300 36013KT P6SM FEW250
     FM200400 03010KT P6SM SKC
     FM201300 06008KT P6SM SKC
     FM201800 11010KT P6SM SKC=



000
FTUS41 KOKX 191700
TAFSWF
TAF
KSWF 191724Z 1918/2024 33011G17KT P6SM FEW250
     FM192300 01010KT P6SM SKC
     FM200300 VRB05KT P6SM SKC
     FM201800 13007KT P6SM SKC
      AMD NOT SKED=



000
FTUS41 KOKX 191700
TAFISP
TAF
KISP 191724Z 1918/2018 34013G19KT P6SM SCT250
     FM192300 01010KT P6SM FEW250
     FM200500 04008KT P6SM SKC
     FM201500 08011KT P6SM SKC=



000
FTUS41 KOKX 191700
TAFEWR
TAF
KEWR 191724Z 1918/2024 36014G21KT P6SM SCT250
     FM192300 36013KT P6SM FEW250
     FM200500 03009KT P6SM SKC
     FM201400 07008KT P6SM SKC
     FM201800 11010KT P6SM SKC=



000
FTUS41 KOKX 191700
TAFGON
TAF
KGON 191724Z 1918/2018 34015G23KT P6SM FEW250
     FM192200 36012KT P6SM FEW250
     FM200500 03008KT P6SM SKC
     FM201500 09010KT P6SM SKC=



000
FTUS41 KOKX 191700
TAFTEB
TAF
KTEB 191724Z 1918/2018 35012G18KT P6SM SCT250
     FM192300 35009KT P6SM FEW250
     FM200500 VRB05KT P6SM SKC
     FM201400 08008KT P6SM SKC=



000
FTUS41 KOKX 191700
TAFBDR
TAF
KBDR 191724Z 1918/2018 34012G18KT P6SM SCT250
     FM192200 36010KT P6SM FEW250
     FM200300 04007KT P6SM SKC
     FM201500 09010KT P6SM SKC=



000
FTUS41 KOKX 191600 AAB
TAFSWF
TAF AMD
KSWF 191601Z 1916/2018 34013G20KT P6SM FEW250
     FM192200 01012KT P6SM SKC
     FM200200 03010KT P6SM SKC
     FM200400 VRB04KT P6SM SKC
      AMD NOT SKED=



000
FTUS41 KOKX 191400 AAA
TAFISP
TAF AMD
KISP 191412Z 1914/2012 34009KT P6SM SCT250
     FM191500 34013G19KT P6SM SCT250
     FM192300 36008KT P6SM SKC
     FM200300 04007KT P6SM SKC=



000
FTUS41 KOKX 191400 AAA
TAFTEB
TAF AMD
KTEB 191412Z 1914/2012 33012G18KT P6SM SCT250
     FM192200 35008KT P6SM SKC
     FM200400 VRB04KT P6SM SKC=



000
FTUS41 KOKX 191400 AAA
TAFLGA
TAF AMD
KLGA 191412Z 1914/2012 34010G17KT P6SM SCT250
     FM192300 36011KT P6SM SKC
     FM200300 03009KT P6SM SKC=



000
FTUS41 KOKX 191400 AAA
TAFGON
TAF AMD
KGON 191412Z 1914/2012 30009G16KT P6SM FEW250
     FM191600 34014G21KT P6SM FEW250
     FM192200 36012KT P6SM SKC
     FM200400 03008KT P6SM SKC=



000
FTUS41 KOKX 191400 AAA
TAFBDR
TAF AMD
KBDR 191412Z 1914/2012 32008KT P6SM FEW250
     FM191500 34012G18KT P6SM FEW250
     FM192200 36009KT P6SM SKC
     FM200300 04007KT P6SM SKC=



000
FTUS41 KOKX 191400 AAA
TAFJFK
TAF AMD
KJFK 191412Z 1914/2018 34011G17KT P6SM SCT250
     FM192300 36013KT P6SM SKC
     FM200300 02010KT P6SM SKC
     FM201000 05008KT P6SM SKC=



000
FTUS41 KOKX 191400 AAA
TAFSWF
TAF AMD
KSWF 191412Z 1914/2018 27010KT P6SM FEW250
     FM191500 29013G20KT P6SM FEW250
     FM192200 01012KT P6SM SKC
     FM200200 03010KT P6SM SKC
     FM200400 VRB04KT P6SM SKC
      AMD NOT SKED=



000
FTUS41 KOKX 191400 AAA
TAFEWR
TAF AMD
KEWR 191412Z 1914/2018 34012G19KT P6SM SCT250
     FM192200 36013KT P6SM SKC
     FM200500 03009KT P6SM SKC
     FM201400 06008KT P6SM SKC=



000
FTUS41 KOKX 191100
TAFBDR
TAF
KBDR 191136Z 1912/2012 VRB02KT P6SM BKN250
     FM191300 32008KT P6SM FEW060
     FM191600 32012G18KT P6SM SKC
     FM192100 36009KT P6SM SKC
     FM200300 04007KT P6SM SKC=



000
FTUS41 KOKX 191100
TAFSWF
TAF
KSWF 191136Z 1912/2018 VRB04KT P6SM FEW060
     FM191300 32010KT P6SM FEW060
     FM191500 34013G20KT P6SM SKC
     FM192100 01012KT P6SM SKC
     FM200200 03010KT P6SM SKC
     FM200400 VRB04KT P6SM SKC
      AMD NOT SKED=



000
FTUS41 KOKX 191100
TAFEWR
TAF
KEWR 191136Z 1912/2018 28007KT P6SM BKN250
     FM191300 32009KT P6SM FEW070
     FM191500 34012G19KT P6SM SKC
     FM192200 36013KT P6SM SKC
     FM200500 03009KT P6SM SKC
     FM201400 06008KT P6SM SKC=



000
FTUS41 KOKX 191100
TAFLGA
TAF
KLGA 191136Z 1912/2012 32008KT P6SM BKN250
     FM191600 33010G17KT P6SM SKC
     FM192100 36011KT P6SM SKC
     FM200300 03009KT P6SM SKC=



000
FTUS41 KOKX 191100
TAFGON
TAF
KGON 191136Z 1912/2012 VRB04KT P6SM BKN250
     FM191400 30009KT P6SM FEW060
     FM191600 31014G21KT P6SM SKC
     FM192200 36012KT P6SM SKC
     FM200400 03008KT P6SM SKC=



000
FTUS41 KOKX 191100
TAFTEB
TAF
KTEB 191136Z 1912/2012 VRB03KT P6SM BKN250
     FM191300 33008KT P6SM FEW060
     FM191600 33009G16KT P6SM SKC
     FM192100 35008KT P6SM SKC
     FM200400 VRB04KT P6SM SKC=



000
FTUS41 KOKX 191100
TAFISP
TAF
KISP 191136Z 1912/2012 VRB03KT P6SM BKN250
     FM191400 33009KT P6SM FEW070
     FM191600 34012G19KT P6SM SKC
     FM192100 36008KT P6SM SKC
     FM200300 04007KT P6SM SKC=



000
FTUS41 KOKX 191100
TAFJFK
TAF
KJFK 191136Z 1912/2018 27008KT P6SM BKN250
     FM191300 31010KT P6SM FEW070
     FM191600 34011G17KT P6SM SKC
     FM192100 36013KT P6SM SKC
     FM200300 02010KT P6SM SKC
     FM201000 05008KT P6SM SKC=



000
FTUS41 KOKX 190800 AAA
TAFTEB
TAF AMD
KTEB 190847Z 1909/2006 VRB03KT P6SM BKN250
     FM191300 33008KT P6SM FEW060
     FM191600 33009G16KT P6SM SKC
     FM192100 35008KT P6SM SKC
     FM200200 VRB04KT P6SM SKC=



000
FTUS41 KOKX 190800 AAA
TAFLGA
TAF AMD
KLGA 190847Z 1909/2006 24006KT P6SM SCT250
     FM191100 28006KT P6SM BKN250
     FM191300 32008KT P6SM FEW070
     FM191600 33010G17KT P6SM SKC
     FM192100 35010KT P6SM SKC
     FM200200 03010KT P6SM SKC=



000
FTUS41 KOKX 190800 AAA
TAFEWR
TAF AMD
KEWR 190847Z 1909/2012 VRB04KT P6SM BKN250
     FM191100 29006KT P6SM FEW070
     FM191300 33008KT P6SM FEW070
     FM191500 34012G19KT P6SM SKC
     FM192200 36013KT P6SM SKC
     FM200500 03009KT P6SM SKC=



000
FTUS41 KOKX 190800 AAA
TAFISP
TAF AMD
KISP 190847Z 1909/2006 VRB03KT P6SM BKN250
     FM191200 33008KT P6SM FEW070
     FM191500 33012G19KT P6SM SKC
     FM192100 35009KT P6SM SKC
     FM200200 03007KT P6SM SKC=



000
FTUS41 KOKX 190800 AAA
TAFBDR
TAF AMD
KBDR 190847Z 1909/2006 23008KT P6SM BKN250
     FM191100 27007KT P6SM SCT250
     FM191300 31010KT P6SM FEW060
     FM191500 32014G20KT P6SM SKC
     FM192200 35013KT P6SM SKC
     FM200200 02009KT P6SM SKC=



000
FTUS41 KOKX 190800 AAA
TAFJFK
TAF AMD
KJFK 190847Z 1909/2012 26007KT P6SM BKN250
     FM191100 29008KT P6SM BKN250
     FM191400 33010KT P6SM FEW070
     FM191600 33013G20KT P6SM SKC
     FM192200 35013KT P6SM SKC
     FM200200 02010KT P6SM SKC=



000
FTUS41 KOKX 190800 AAA
TAFGON
TAF AMD
KGON 190847Z 1909/2006 VRB04KT P6SM BKN250
     FM191300 31009KT P6SM FEW060
     FM191600 31014G21KT P6SM SKC
     FM192200 35011KT P6SM SKC
     FM200200 02009KT P6SM SKC=



000
FTUS41 KOKX 190500
TAFBDR
TAF
KBDR 190520Z 1906/2006 24006KT P6SM BKN250
     FM190800 VRB04KT P6SM SCT250
     FM191200 34008KT P6SM FEW060
     FM191500 32014G20KT P6SM SKC
     FM192200 35011KT P6SM SKC
     FM200200 02008KT P6SM SKC=



000
FTUS41 KOKX 190500
TAFLGA
TAF
KLGA 190520Z 1906/2006 24005KT P6SM BKN250
     FM190900 28006KT P6SM SCT250
     FM191100 32007KT P6SM FEW070
     FM191500 33010G17KT P6SM SKC
     FM192100 35010KT P6SM SKC
     FM200200 03010KT P6SM SKC=



000
FTUS41 KOKX 190500
TAFSWF
TAF
KSWF 190520Z 1906/2012 VRB04KT P6SM FEW060 BKN250
     FM191300 33011KT P6SM FEW060
     FM191500 34013G20KT P6SM SKC
     FM192200 01010KT P6SM SKC
     FM200400 VRB04KT P6SM SKC
      AMD NOT SKED=



000
FTUS41 KOKX 190500
TAFJFK
TAF
KJFK 190520Z 1906/2012 24007KT P6SM FEW015 BKN250
     FM190900 28007KT P6SM SCT250
     FM191100 33010KT P6SM FEW070
     FM191500 33013G20KT P6SM SKC
     FM192100 35012KT P6SM SKC
     FM200200 02010KT P6SM SKC=



000
FTUS41 KOKX 190500
TAFEWR
TAF
KEWR 190520Z 1906/2012 VRB04KT P6SM BKN250
     FM191100 33008KT P6SM FEW070
     FM191500 34012G19KT P6SM SKC
     FM192200 36012KT P6SM SKC
     FM200500 03009KT P6SM SKC=



000
FTUS41 KOKX 190500
TAFGON
TAF
KGON 190520Z 1906/2006 VRB03KT P6SM BKN250
     FM191300 31009KT P6SM FEW060
     FM191600 31014G21KT P6SM SKC
     FM192200 35011KT P6SM SKC
     FM200200 02009KT P6SM SKC=



000
FTUS41 KOKX 190500
TAFTEB
TAF
KTEB 190520Z 1906/2006 VRB03KT P6SM BKN250
     FM191200 33007KT P6SM FEW060
     FM191500 33009G16KT P6SM SKC
     FM192100 35008KT P6SM SKC
     FM200200 VRB04KT P6SM SKC=



000
FTUS41 KOKX 190500
TAFISP
TAF
KISP 190520Z 1906/2006 VRB03KT P6SM BKN250
     FM191200 33008KT P6SM FEW070
     FM191500 33012G19KT P6SM SKC
     FM192100 35009KT P6SM SKC
     FM200200 03007KT P6SM SKC=



000
FTUS41 KOKX 190200 AAA
TAFGON
TAF AMD
KGON 190236Z 1903/1924 21006KT P6SM BKN250
     FM190500 VRB03KT P6SM FEW020 BKN250
     FM191200 30006KT P6SM SCT250
     FM191400 32015G22KT P6SM FEW070=



000
FTUS41 KOKX 190200 AAA
TAFEWR
TAF AMD
KEWR 190236Z 1903/2006 20005KT P6SM BKN200
     FM190600 24005KT P6SM BKN250
     FM190900 28007KT P6SM SCT250
     FM191100 32010KT P6SM FEW070
     FM191400 33014G21KT P6SM SKC
     FM200000 01010KT P6SM SKC=



000
FTUS41 KOKX 190200 AAA
TAFJFK
TAF AMD
KJFK 190236Z 1903/2006 20005KT P6SM BKN200
     FM190600 24005KT P6SM FEW020 BKN250
     FM190900 28007KT P6SM SCT250
     FM191200 32010KT P6SM FEW070
     FM191400 33014G21KT P6SM SKC
     FM200000 01011KT P6SM SKC=



000
FTUS41 KOKX 190200 AAA
TAFLGA
TAF AMD
KLGA 190236Z 1903/1924 20005KT P6SM BKN200
     FM190600 24005KT P6SM BKN250
     FM190900 29007KT P6SM SCT250
     FM191200 32010KT P6SM FEW070
     FM191400 33014G21KT P6SM SKC=



000
FTUS41 KOKX 190200 AAA
TAFTEB
TAF AMD
KTEB 190236Z 1903/1924 19005KT P6SM BKN200
     FM190500 VRB03KT P6SM BKN200
     FM191100 33007KT P6SM FEW070
     FM191400 34011G18KT P6SM SKC=



000
FTUS41 KOKX 190200 AAA
TAFISP
TAF AMD
KISP 190236Z 1903/1924 21005KT P6SM BKN170
     FM190500 VRB03KT P6SM FEW020 BKN200
     FM190900 29005KT P6SM SCT250
     FM191300 33010KT P6SM FEW070
     FM191500 33013G20KT P6SM SKC=



000
FTUS41 KOKX 190200 AAA
TAFBDR
TAF AMD
KBDR 190236Z 1903/1924 21006KT P6SM BKN200
     FM190500 VRB03KT P6SM FEW020 BKN200
     FM190900 29006KT P6SM SCT250
     FM191300 32010KT P6SM FEW070
     FM191500 32013G20KT P6SM SKC=



000
FTUS41 KOKX 182300 RRA
TAFSWF
TAF
KSWF 182357Z 1900/2006 VRB04KT P6SM BKN250
     FM190800 29008KT P6SM SCT250
     FM191400 33014G20KT P6SM SKC
     FM192300 01010KT P6SM SKC
      AMD NOT SKED=



000
FTUS41 KOKX 182300 RRA
TAFGON
TAF
KGON 182357Z 1900/1924 18005KT P6SM BKN250
     FM190100 VRB03KT P6SM BKN250
     FM191200 30006KT P6SM SCT250
     FM191400 32015G22KT P6SM FEW070=



000
FTUS41 KOKX 182300 RRA
TAFISP
TAF
KISP 182349Z 1900/1924 18005KT P6SM FEW020 BKN170
     FM190200 VRB03KT P6SM FEW020 BKN200
     FM190900 29005KT P6SM SCT250
     FM191300 33010KT P6SM FEW070
     FM191500 33013G20KT P6SM SKC=



000
FTUS41 KOKX 182300 RRA
TAFBDR
TAF
KBDR 182349Z 1900/1924 19004KT P6SM BKN250
     FM190200 VRB03KT P6SM BKN200
     FM190900 29006KT P6SM SCT250
     FM191300 32010KT P6SM FEW070
     FM191500 32013G20KT P6SM SKC=



000
FTUS41 KOKX 182300
TAFTEB
TAF
KTEB 182338Z 1900/1924 17005KT P6SM SCT170 BKN250
     FM190200 VRB03KT P6SM FEW020 BKN200
     FM191100 33007KT P6SM FEW070
     FM191400 34011G18KT P6SM SKC=



000
FTUS41 KOKX 182300
TAFLGA
TAF
KLGA 182338Z 1900/1924 17005KT P6SM SCT170 BKN250
     FM190200 20005KT P6SM FEW020 BKN200
     FM190600 24005KT P6SM FEW020 BKN250
     FM190900 29007KT P6SM SCT250
     FM191200 32010KT P6SM FEW070
     FM191400 33014G21KT P6SM SKC=



000
FTUS41 KOKX 182300
TAFJFK
TAF
KJFK 182338Z 1900/2006 15005KT P6SM BKN170
     FM190200 21005KT P6SM FEW020 BKN200
     FM190600 24005KT P6SM FEW020 BKN250
     FM190900 28007KT P6SM SCT250
     FM191200 32010KT P6SM FEW070
     FM191400 33014G21KT P6SM SKC
     FM200000 01011KT P6SM SKC=



000
FTUS41 KOKX 182300
TAFEWR
TAF
KEWR 182338Z 1900/2006 16005KT P6SM SCT170 BKN250
     FM190200 20005KT P6SM FEW020 BKN200
     FM190600 24005KT P6SM FEW020 BKN250
     FM190900 28007KT P6SM SCT250
     FM191100 32010KT P6SM FEW070
     FM191400 33014G21KT P6SM SKC
     FM200000 01010KT P6SM SKC=



000
FTUS41 KOKX 181900 AAA
TAFBDR
TAF AMD
KBDR 181941Z 1820/1918 12010KT P6SM SCT030 BKN250
     FM182300 18007KT P6SM SCT030 BKN250
     FM190200 VRB03KT P6SM SCT020 BKN150
     FM190600 VRB03KT P6SM SCT020 BKN150
     FM191000 30006KT P6SM SCT250
     FM191400 32012G18KT P6SM FEW250=



000
FTUS41 KOKX 181900 AAA
TAFGON
TAF AMD
KGON 181941Z 1820/1918 18005KT P6SM BKN250
     FM190200 VRB03KT P6SM SCT020 BKN150
     FM190600 VRB03KT P6SM SCT020 BKN150
     FM191000 31008KT P6SM SCT250
     FM191400 32014G18KT P6SM FEW250=



000
FTUS41 KOKX 181900 AAA
TAFSWF
TAF AMD
KSWF 181941Z 1820/1924 19006KT P6SM BKN150
     FM190100 VRB03KT P6SM BKN150
     FM190900 29005KT P6SM SCT250
     FM191400 33012G20KT P6SM SCT250
     FM191900 34016G22KT P6SM SKC
      AMD NOT SKED=



000
FTUS41 KOKX 181900 AAA
TAFISP
TAF AMD
KISP 181941Z 1820/1918 15005KT P6SM SCT030 BKN250
     FM182300 18004KT P6SM SCT030 BKN250
     FM190200 20003KT P6SM SCT020 BKN150
     FM190600 24003KT P6SM SCT020 BKN150
     FM191000 32006KT P6SM SCT250
     FM191400 32010G18KT P6SM FEW250=



000
FTUS41 KOKX 181900 AAA
TAFLGA
TAF AMD
KLGA 181941Z 1820/1918 08008KT P6SM SCT030 BKN250
     FM182200 15007KT P6SM SCT030 BKN250
     FM190200 18005KT P6SM SCT020 BKN150
     FM190600 24005KT P6SM SCT020 BKN150
     FM191000 30007KT P6SM SCT250
     FM191400 33010G18KT P6SM FEW250=



000
FTUS41 KOKX 181900 AAA
TAFTEB
TAF AMD
KTEB 181941Z 1820/1918 14006KT P6SM FEW030 BKN250
     FM182300 16005KT P6SM SCT030 BKN250
     FM190200 18003KT P6SM SCT020 BKN150
     FM190600 24003KT P6SM SCT020 BKN150
     FM191000 30005KT P6SM SCT250
     FM191400 32010G16KT P6SM FEW250=



000
FTUS41 KOKX 181900 AAA
TAFEWR
TAF AMD
KEWR 181941Z 1820/1924 17006KT P6SM SCT030 BKN250
     FM182300 16005KT P6SM SCT030 BKN250
     FM190200 18004KT P6SM SCT020 BKN150
     FM190600 24004KT P6SM SCT020 BKN150
     FM191000 30007KT P6SM SCT250
     FM191400 32012G18KT P6SM FEW250
     FM192000 35014G20KT P6SM SKC=



000
FTUS41 KOKX 181900 AAA
TAFJFK
TAF AMD
KJFK 181941Z 1820/1924 18008KT P6SM SCT030 BKN250
     FM182300 20007KT P6SM SCT030 BKN250
     FM190200 20005KT P6SM SCT020 BKN150
     FM190600 24005KT P6SM SCT020 BKN150
     FM191000 30007KT P6SM SCT250
     FM191400 32010G18KT P6SM FEW250
     FM192000 35015G20KT P6SM SKC=



000
FTUS41 KOKX 181700
TAFISP
TAF
KISP 181735Z 1818/1918 15008KT P6SM SCT030 BKN250
     FM182300 18007KT P6SM BKN150
     FM190200 20003KT P6SM SCT020 BKN150
     FM190600 24003KT P6SM SCT020 BKN150
     FM191000 32006KT P6SM SCT250
     FM191400 32010KT P6SM FEW250=



000
FTUS41 KOKX 181700
TAFSWF
TAF
KSWF 181735Z 1818/1924 19006KT P6SM BKN200
     FM190100 VRB03KT P6SM BKN150
     FM190900 29005KT P6SM SCT250
     FM191400 33012KT P6SM SCT250
     FM191900 34016KT P6SM SKC
      AMD NOT SKED=



000
FTUS41 KOKX 181700
TAFBDR
TAF
KBDR 181735Z 1818/1918 12010KT P6SM SCT030 BKN250
     FM182300 18007KT P6SM BKN150
     FM190200 VRB03KT P6SM SCT020 BKN150
     FM190600 VRB03KT P6SM SCT020 BKN150
     FM191000 30006KT P6SM SCT250
     FM191400 32012KT P6SM FEW250=



000
FTUS41 KOKX 181700
TAFGON
TAF
KGON 181735Z 1818/1918 13010KT P6SM BKN025 BKN250
     FM182300 18007KT P6SM BKN150
     FM190200 VRB03KT P6SM SCT020 BKN150
     FM190600 VRB03KT P6SM SCT020 BKN150
     FM191000 31008KT P6SM SCT250
     FM191400 32014KT P6SM FEW250=



000
FTUS41 KOKX 181700
TAFEWR
TAF
KEWR 181735Z 1818/1924 17008KT P6SM SCT030 BKN250
     FM182300 16007KT P6SM BKN150
     FM190200 18005KT P6SM SCT020 BKN150
     FM190600 24005KT P6SM SCT020 BKN150
     FM191000 30007KT P6SM SCT250
     FM191400 32012KT P6SM FEW250
     FM192000 35014KT P6SM SKC=



000
FTUS41 KOKX 181700
TAFJFK
TAF
KJFK 181735Z 1818/1924 19010KT P6SM SCT030 BKN250
     FM182300 20007KT P6SM BKN150
     FM190200 20005KT P6SM SCT020 BKN150
     FM190600 24005KT P6SM SCT020 BKN150
     FM191000 30007KT P6SM SCT250
     FM191400 32010KT P6SM FEW250
     FM192000 35015KT P6SM SKC=



000
FTUS41 KOKX 181700
TAFTEB
TAF
KTEB 181735Z 1818/1918 14006KT P6SM FEW030 BKN250
     FM182300 16005KT P6SM BKN150
     FM190200 18003KT P6SM SCT020 BKN150
     FM190600 24003KT P6SM SCT020 BKN150
     FM191000 30005KT P6SM SCT250
     FM191400 32010KT P6SM FEW250=



000
FTUS41 KOKX 181700
TAFLGA
TAF
KLGA 181735Z 1818/1918 08008KT P6SM SCT030 BKN250
     FM182200 15007KT P6SM BKN150
     FM190200 18005KT P6SM SCT020 BKN150
     FM190600 24005KT P6SM SCT020 BKN150
     FM191000 30007KT P6SM SCT250
     FM191400 33010KT P6SM FEW250=



000
FTUS41 KOKX 181300 AAA
TAFJFK
TAF AMD
KJFK 181335Z 1814/1918 08008KT P6SM BKN020 BKN250
     FM181500 10008KT P6SM BKN020 BKN250
     FM181800 17012KT P6SM SCT030 BKN250
     FM182300 20007KT P6SM BKN150
     FM190200 VRB05KT P6SM SCT020 BKN150
     FM191400 34010KT P6SM SCT150=



000
FTUS41 KOKX 181300 AAA
TAFTEB
TAF AMD
KTEB 181335Z 1814/1912 05005KT P6SM SCT025
     FM181400 09005KT P6SM SCT020 BKN250
     FM181800 16007KT P6SM FEW030 BKN250
     FM190200 VRB02KT P6SM BKN150=



000
FTUS41 KOKX 181300 AAA
TAFSWF
TAF AMD
KSWF 181335Z 1814/1918 VRB04KT P6SM SCT250
     FM181500 10008KT P6SM BKN250
     FM181800 19008KT P6SM BKN200
     FM190100 VRB03KT P6SM BKN150
     FM191400 33012KT P6SM SCT150
      AMD NOT SKED=



000
FTUS41 KOKX 181300 AAA
TAFGON
TAF AMD
KGON 181335Z 1814/1912 04009KT P6SM BKN025 BKN250
     FM181600 13010KT P6SM BKN025 BKN250
     FM181900 16010KT P6SM SCT025 BKN250
     FM190100 VRB03KT P6SM BKN150=



000
FTUS41 KOKX 181300 AAA
TAFEWR
TAF AMD
KEWR 181335Z 1814/1918 04008KT P6SM SCT025
      TEMPO 1814/1816 BKN025
     FM181600 08008KT P6SM SCT020 BKN250
     FM181800 12008KT P6SM SCT030 BKN250
     FM182100 16007KT P6SM FEW030 BKN250
     FM190200 VRB03KT P6SM SCT020 BKN150
     FM191400 34012KT P6SM SCT150=



000
FTUS41 KOKX 181300 AAA
TAFBDR
TAF AMD
KBDR 181335Z 1814/1912 05008KT P6SM BKN025 BKN250
     FM181500 08008KT P6SM BKN020 BKN250
     FM181800 12010KT P6SM SCT030 BKN250
     FM190100 VRB03KT P6SM BKN150=



000
FTUS41 KOKX 181300 AAA
TAFLGA
TAF AMD
KLGA 181335Z 1814/1912 06012KT P6SM BKN025 BKN250
     FM181500 06010KT P6SM BKN020 BKN250
     FM181900 12008KT P6SM SCT030 BKN250
     FM182100 15008KT P6SM FEW030 BKN250
     FM190200 VRB05KT P6SM BKN150=



000
FTUS41 KOKX 181300 AAA
TAFISP
TAF AMD
KISP 181335Z 1814/1912 05008KT P6SM OVC015
     FM181500 08008KT P6SM BKN020 BKN250
     FM181800 15008KT P6SM SCT030 BKN250
     FM190100 VRB03KT P6SM BKN150=



000
FTUS41 KOKX 181100
TAFLGA
TAF
KLGA 181130Z 1812/1912 06012KT P6SM BKN025 BKN250
     FM181500 06010KT P6SM SCT020 BKN250
     FM181900 12008KT P6SM SCT030 BKN250
     FM182100 15008KT P6SM FEW030 BKN250
     FM190200 VRB05KT P6SM BKN150=



000
FTUS41 KOKX 181100
TAFJFK
TAF
KJFK 181130Z 1812/1918 08008KT P6SM BKN020 BKN250
     FM181500 10008KT P6SM SCT020 BKN250
     FM181800 17012KT P6SM FEW030 BKN250
     FM182300 20007KT P6SM BKN150
     FM190200 VRB05KT P6SM SCT020 BKN150
     FM191400 34010KT P6SM SCT150=



000
FTUS41 KOKX 181100
TAFGON
TAF
KGON 181130Z 1812/1912 04009KT P6SM FEW025 BKN250
      TEMPO 1812/1815 BKN025
     FM181600 13010KT P6SM SCT025 BKN250
     FM181900 16010KT P6SM SCT025 BKN250
     FM190100 VRB03KT P6SM BKN150=



000
FTUS41 KOKX 181100
TAFEWR
TAF
KEWR 181130Z 1812/1918 04008KT P6SM SCT025
      TEMPO 1812/1815 BKN025
     FM181500 08008KT P6SM SCT020 BKN250
     FM181800 12008KT P6SM SCT030 BKN250
     FM182100 16007KT P6SM FEW030 BKN250
     FM190200 VRB03KT P6SM SCT020 BKN150
     FM191400 34012KT P6SM SCT150=



000
FTUS41 KOKX 181100
TAFISP
TAF
KISP 181130Z 1812/1912 05008KT P6SM OVC015
     FM181500 08008KT P6SM SCT020 BKN250
     FM181800 15008KT P6SM BKN250
     FM190100 VRB03KT P6SM BKN150=



000
FTUS41 KOKX 181100
TAFSWF
TAF
KSWF 181130Z 1812/1918 VRB04KT P6SM SCT250
     FM181500 10008KT P6SM BKN250
     FM181800 19008KT P6SM BKN200
     FM190100 VRB03KT P6SM BKN150
     FM191400 33012KT P6SM SCT150
      AMD NOT SKED=



000
FTUS41 KOKX 181100
TAFBDR
TAF
KBDR 181130Z 1812/1912 05008KT P6SM BKN025 BKN250
     FM181500 08008KT P6SM SCT020 BKN250
     FM181800 12010KT P6SM FEW030 BKN250
     FM190100 VRB03KT P6SM BKN150=



000
FTUS41 KOKX 181100
TAFTEB
TAF
KTEB 181130Z 1812/1912 05005KT P6SM SCT025
     FM181400 09005KT P6SM SCT020 BKN250
     FM181800 16007KT P6SM FEW030 BKN250
     FM190200 VRB02KT P6SM BKN150=



000
FTUS41 KOKX 180800 AAA
TAFSWF
TAF AMD
KSWF 180830Z 1809/1912 VRB04KT P6SM SCT250
      TEMPO 1810/1814 BKN025
     FM181400 13006KT P6SM FEW020 BKN250
     FM181800 18008KT P6SM BKN200
     FM190100 VRB03KT P6SM BKN150
      AMD NOT SKED=



000
FTUS41 KOKX 180800 AAA
TAFBDR
TAF AMD
KBDR 180830Z 1809/1906 08008KT P6SM BKN025 BKN250
     FM181400 11010KT P6SM SCT020 BKN250
     FM181700 15010KT P6SM FEW030 BKN250
     FM190100 VRB03KT P6SM BKN150=



000
FTUS41 KOKX 180800 AAA
TAFLGA
TAF AMD
KLGA 180830Z 1809/1906 08007KT P6SM BKN025 BKN250
     FM181400 05008KT P6SM SCT020 BKN250
     FM181800 14009KT P6SM FEW030 BKN250
     FM190200 22005KT P6SM BKN150=



000
FTUS41 KOKX 180800 AAB
TAFEWR
TAF AMD
KEWR 180830Z 1809/1912 06008KT P6SM BKN025 BKN250
     FM181400 06008KT P6SM SCT020 BKN250
     FM181700 14008KT P6SM FEW030 BKN250
     FM190200 VRB05KT P6SM SCT020 BKN150=



000
FTUS41 KOKX 180800 AAA
TAFTEB
TAF AMD
KTEB 180830Z 1809/1906 VRB04KT P6SM OVC025
     FM181400 09006KT P6SM SCT020 BKN250
     FM181700 18007KT P6SM FEW030 BKN250
     FM190200 VRB02KT P6SM BKN150=



000
FTUS41 KOKX 180800 AAB
TAFISP
TAF AMD
KISP 180830Z 1809/1906 VRB03KT P6SM OVC020
     FM181400 08008KT P6SM SCT020 BKN250
     FM181700 15010KT P6SM BKN250
     FM190100 VRB03KT P6SM BKN150=



000
FTUS41 KOKX 180800 AAB
TAFJFK
TAF AMD
KJFK 180830Z 1809/1912 05009KT P6SM BKN025 BKN250
     FM181400 09008KT P6SM SCT020 BKN250
     FM181800 17015KT P6SM FEW030 BKN250
     FM190200 20007KT P6SM BKN150
     FM190800 VRB05KT P6SM SCT020 BKN150=



000
FTUS41 KOKX 180800 AAA
TAFGON
TAF AMD
KGON 180830Z 1809/1906 04009KT P6SM FEW025 BKN250
      TEMPO 1810/1814 BKN025
     FM181600 15010KT P6SM SCT025 BKN250
     FM190100 VRB03KT P6SM BKN150=



000
FTUS41 KOKX 180600 AAA
TAFISP
TAF AMD
KISP 180659Z 1807/1906 VRB03KT P6SM BKN020 BKN250
     FM181400 08008KT P6SM SCT020 BKN250
     FM181700 15010KT P6SM BKN250
     FM190100 VRB03KT P6SM BKN150=



000
FTUS41 KOKX 180500 AAA
TAFEWR
TAF AMD
KEWR 180534Z 1806/1912 08008KT P6SM BKN025 BKN250
      TEMPO 1810/1814 BKN015
     FM181400 06008KT P6SM SCT020 BKN250
     FM181700 14008KT P6SM FEW030 BKN250
     FM190200 VRB05KT P6SM SCT020 BKN150=



000
FTUS41 KOKX 180500 AAA
TAFJFK
TAF AMD
KJFK 180534Z 1806/1912 06009KT P6SM BKN025 BKN250
     FM180900 05008KT P6SM BKN015 BKN250
     FM181400 09008KT P6SM SCT020 BKN250
     FM181800 17015KT P6SM FEW030 BKN250
     FM190200 20007KT P6SM BKN150
     FM190800 VRB05KT P6SM SCT020 BKN150=



000
FTUS41 KOKX 180500
TAFISP
TAF
KISP 180522Z 1806/1906 05005KT P6SM SCT250
     FM180800 05005KT P6SM BKN015 BKN250
     FM181400 08008KT P6SM SCT020 BKN250
     FM181700 15010KT P6SM BKN250
     FM190100 VRB03KT P6SM BKN150=



000
FTUS41 KOKX 180500
TAFJFK
TAF
KJFK 180522Z 1806/1912 06009KT P6SM FEW025 BKN250
     FM180900 05008KT P6SM BKN015 BKN250
     FM181400 09008KT P6SM SCT020 BKN250
     FM181800 17015KT P6SM FEW030 BKN250
     FM190200 20007KT P6SM BKN150
     FM190800 VRB05KT P6SM SCT020 BKN150=



000
FTUS41 KOKX 180500
TAFEWR
TAF
KEWR 180522Z 1806/1912 08008KT P6SM SCT020 SCT250
      TEMPO 1810/1814 BKN015
     FM181400 06008KT P6SM SCT020 BKN250
     FM181700 14008KT P6SM FEW030 BKN250
     FM190200 VRB05KT P6SM SCT020 BKN150=



000
FTUS41 KOKX 180500
TAFTEB
TAF
KTEB 180522Z 1806/1906 VRB04KT P6SM SCT020 SCT250
      TEMPO 1810/1814 BKN015
     FM181400 09006KT P6SM SCT020 BKN250
     FM181700 18007KT P6SM FEW030 BKN250
     FM190200 VRB02KT P6SM BKN150=



000
FTUS41 KOKX 180500
TAFBDR
TAF
KBDR 180522Z 1806/1906 06010KT P6SM SCT250
     FM180800 08008KT P6SM BKN015 BKN250
     FM181400 11010KT P6SM SCT020 BKN250
     FM181700 15010KT P6SM FEW030 BKN250
     FM190100 VRB03KT P6SM BKN150=



000
FTUS41 KOKX 180500
TAFSWF
TAF
KSWF 180522Z 1806/1912 VRB04KT P6SM SCT250
     FM181400 13006KT P6SM FEW020 BKN250
     FM181800 18008KT P6SM BKN200
     FM190100 VRB03KT P6SM BKN150
      AMD NOT SKED=



000
FTUS41 KOKX 180500
TAFLGA
TAF
KLGA 180522Z 1806/1906 08007KT P6SM SCT020 SCT250
     FM180900 05008KT P6SM BKN015 BKN250
     FM181400 05008KT P6SM SCT020 BKN250
     FM181800 14009KT P6SM FEW030 BKN250
     FM190200 22005KT P6SM BKN150=



000
FTUS41 KOKX 180500
TAFGON
TAF
KGON 180522Z 1806/1906 04010KT P6SM SCT250
     FM180800 04009KT P6SM BKN015 BKN250
     FM181600 15010KT P6SM SCT025 BKN250
     FM190100 VRB03KT P6SM BKN150=



000
FTUS41 KOKX 180200 AAA
TAFISP
TAF AMD
KISP 180237Z 1803/1824 08005KT P6SM SCT250
     FM180500 05005KT P6SM SCT025 SCT250
     FM180800 05005KT P6SM BKN015 BKN250
     FM181400 08009KT P6SM SCT020 BKN250
     FM181700 14011KT P6SM FEW030 BKN250=



000
FTUS41 KOKX 180200 AAA
TAFGON
TAF AMD
KGON 180237Z 1803/1824 04010KT P6SM FEW025 SCT250
     FM180800 04009KT P6SM BKN015 BKN250
     FM181600 15010KT P6SM SCT025 BKN250=



000
FTUS41 KOKX 180200 AAA
TAFLGA
TAF AMD
KLGA 180237Z 1803/1824 10008KT P6SM FEW030 BKN250
     FM180500 06008KT P6SM SCT020 SCT250
     FM180900 05008KT P6SM BKN015 BKN250
     FM181400 05008KT P6SM SCT020 BKN250
     FM181800 14009KT P6SM FEW030 BKN250=



000
FTUS41 KOKX 180200 AAA
TAFJFK
TAF AMD
KJFK 180237Z 1803/1906 07009KT P6SM FEW025 BKN250
     FM180900 05008KT P6SM BKN015 BKN250
     FM181400 09008KT P6SM SCT020 BKN250
     FM181800 17015KT P6SM FEW030 BKN250
     FM190200 20007KT P6SM BKN150=



000
FTUS41 KOKX 180200 AAA
TAFTEB
TAF AMD
KTEB 180237Z 1803/1824 10005KT P6SM FEW025 BKN250
     FM180600 06005KT P6SM SCT020 SCT250
      TEMPO 1810/1814 BKN015
     FM181400 09006KT P6SM SCT020 BKN250
     FM181700 16007KT P6SM FEW030 BKN250=



000
FTUS41 KOKX 180200 AAA
TAFBDR
TAF AMD
KBDR 180237Z 1803/1824 09012KT P6SM SCT250
     FM180500 06008KT P6SM FEW020 SCT250
     FM180800 04008KT P6SM BKN015 BKN250
     FM181400 11010KT P6SM SCT020 BKN250
     FM181700 15010KT P6SM FEW030 BKN250=



000
FTUS41 KOKX 180200 AAA
TAFEWR
TAF AMD
KEWR 180237Z 1803/1906 09008KT P6SM FEW025 BKN250
     FM180600 05008KT P6SM SCT020 SCT250
      TEMPO 1810/1814 BKN015
     FM181400 08008KT P6SM SCT020 BKN250
     FM181700 14008KT P6SM FEW030 BKN250
     FM190200 20005KT P6SM FEW020 BKN150=



000
FTUS41 KOKX 180000 RRA
TAFGON
TAF
KGON 180013Z 1800/1824 07012KT P6SM SCT250
     FM180400 04010KT P6SM FEW025 BKN250
     FM180800 04009KT P6SM BKN015 BKN250
     FM181600 15010KT P6SM SCT025 BKN250=



000
FTUS41 KOKX 180000 RRA
TAFSWF
TAF
KSWF 180013Z 1800/1906 18008KT P6SM SCT250
     FM180500 VRB04KT P6SM SCT250
     FM181400 13006KT P6SM FEW020 BKN250
     FM181800 18008KT P6SM BKN200
     FM190100 21005KT P6SM BKN150
      AMD NOT SKED=



000
FTUS41 KOKX 180000 RRA
TAFBDR
TAF
KBDR 180002Z 1800/1824 09010KT P6SM SKC
     FM180500 06008KT P6SM FEW020 BKN250
     FM180800 04008KT P6SM BKN015 BKN250
     FM181400 11010KT P6SM SCT020 BKN250
     FM181700 15010KT P6SM FEW030 BKN250=



000
FTUS41 KOKX 180000 RRA
TAFISP
TAF
KISP 180002Z 1800/1824 10012KT P6SM FEW040 BKN250
     FM180300 07009KT P6SM SCT025 BKN250
     FM180800 05007KT P6SM BKN015 BKN250
     FM181400 08009KT P6SM SCT020 BKN250
     FM181700 14009KT P6SM FEW030 BKN250=



000
FTUS41 KOKX 172300 RRA
TAFTEB
TAF
KTEB 172351Z 1800/1824 13007KT P6SM FEW030 BKN250
     FM180300 10005KT P6SM BKN250
     FM180600 06005KT P6SM FEW020 BKN250
     FM180900 05004KT P6SM SCT015 BKN250
      TEMPO 1810/1814 BKN015
     FM181400 09006KT P6SM SCT020 BKN250
     FM181700 16007KT P6SM FEW030 BKN250=



000
FTUS41 KOKX 172300
TAFJFK
TAF
KJFK 172339Z 1800/1906 10013KT P6SM FEW020 SCT035 BKN250
     FM180500 05010KT P6SM FEW020 BKN250
     FM180900 05008KT P6SM BKN015 BKN250
     FM181400 09008KT P6SM SCT020 BKN250
     FM181800 17015KT P6SM FEW030 BKN250
     FM190200 20007KT P6SM BKN150=



000
FTUS41 KOKX 172300
TAFEWR
TAF
KEWR 172339Z 1800/1906 14008KT P6SM FEW030 BKN250
     FM180200 09008KT P6SM FEW025 BKN250
     FM180800 05008KT P6SM SCT015 BKN250
      TEMPO 1810/1814 BKN015
     FM181400 08008KT P6SM SCT020 BKN250
     FM181700 14008KT P6SM FEW030 BKN250
     FM190200 20005KT P6SM FEW020 BKN150=



000
FTUS41 KOKX 172300
TAFLGA
TAF
KLGA 172339Z 1800/1824 14009KT P6SM FEW040 BKN250
     FM180200 11009KT P6SM BKN250
     FM180500 06008KT P6SM FEW020 BKN250
     FM180900 05008KT P6SM BKN015 BKN250
     FM181400 05008KT P6SM SCT020 BKN250
     FM181800 14009KT P6SM FEW030 BKN250=



000
FTUS41 KOKX 172100 AAB
TAFTEB
TAF AMD
KTEB 172112Z 1721/1818 13008KT P6SM SCT045
     FM180200 10007KT P6SM SCT025 BKN250
     FM180900 04006KT P6SM SCT015 BKN250
     FM181400 11008KT P6SM SCT015 BKN250
     FM181700 14008KT P6SM SCT015 BKN250=



000
FTUS41 KOKX 172100 AAB
TAFEWR
TAF AMD
KEWR 172110Z 1721/1824 14008G18KT P6SM FEW025 BKN040 BKN250
     FM180200 09008KT P6SM SCT025 BKN250
     FM180800 04006KT P6SM SCT015 BKN250
     FM181400 09008KT P6SM SCT015 BKN250
     FM181800 14008KT P6SM SCT015 BKN250=



000
FTUS41 KOKX 172100 AAB
TAFLGA
TAF AMD
KLGA 172103Z 1721/1818 14009KT P6SM SCT040 BKN250
     FM180000 10008KT P6SM FEW040 BKN250
     FM180200 06012KT P6SM FEW020 BKN250
     FM180500 04008KT P6SM SCT015 BKN250
     FM181200 05006KT P6SM BKN250
     FM181500 08006KT P6SM BKN250=



000
FTUS41 KOKX 172000 AAA
TAFEWR
TAF AMD
KEWR 172035Z 1721/1824 14008G18KT P6SM FEW025 BKN040 BKN250
     FM180200 09014KT P6SM SCT025 BKN250
     FM180800 04006KT P6SM SCT015 BKN250
     FM181400 09008KT P6SM SCT015 BKN250
     FM181800 14008KT P6SM SCT015 BKN250=



000
FTUS41 KOKX 172000 AAA
TAFTEB
TAF AMD
KTEB 172035Z 1721/1818 13008KT P6SM SCT045
     FM180200 10014KT P6SM SCT025 BKN250
     FM180900 04006KT P6SM SCT015 BKN250
     FM181400 11008KT P6SM SCT015 BKN250
     FM181700 14008KT P6SM SCT015 BKN250=



000
FTUS41 KOKX 172000 AAA
TAFISP
TAF AMD
KISP 172035Z 1721/1818 13015KT P6SM FEW040 BKN250
     FM180200 08010KT P6SM SCT025 BKN250
     FM180800 06005KT P6SM BKN015 BKN250
     FM181400 08008KT P6SM SCT015 BKN250
     FM181700 14008KT P6SM SCT015 BKN250=



000
FTUS41 KOKX 172000 AAA
TAFLGA
TAF AMD
KLGA 172035Z 1721/1818 05008KT P6SM BKN040 BKN260
     FM180200 06012KT P6SM FEW020 BKN250
     FM180500 04008KT P6SM SCT015 BKN250
     FM181200 05006KT P6SM BKN250
     FM181500 08006KT P6SM BKN250=



000
FTUS41 KOKX 172000 AAB
TAFGON
TAF AMD
KGON 172035Z 1721/1818 12018G25KT P6SM SKC
     FM180400 06012KT P6SM FEW030 BKN250
     FM180900 05008KT P6SM BKN020 BKN250
     FM181700 15006KT P6SM BKN025 BKN250=



000
FTUS41 KOKX 172000 AAA
TAFBDR
TAF AMD
KBDR 172035Z 1721/1818 12010KT P6SM SKC
     FM180200 06010KT P6SM FEW020 BKN250
     FM180500 05008KT P6SM BKN015 BKN250
     FM181400 11008KT P6SM SCT015 BKN250
     FM181700 13008KT P6SM SCT015 BKN250=



000
FTUS41 KOKX 172000 AAB
TAFJFK
TAF AMD
KJFK 172035Z 1721/1824 13016G21KT P6SM SCT035 BKN250
     FM180200 10014KT P6SM SCT025 BKN250
     FM180900 06008KT P6SM BKN015 BKN250
     FM181400 09008KT P6SM SCT015 BKN250
     FM181800 13012KT P6SM SCT015 BKN250=



000
FTUS41 KOKX 171800 AAA
TAFGON
TAF AMD
KGON 171807Z 1718/1818 12018G24KT P6SM SCT040 SCT250
     FM180400 06012KT P6SM FEW030 BKN250
     FM180900 05008KT P6SM BKN020 BKN250
     FM181700 15006KT P6SM BKN025 BKN250=



000
FTUS41 KOKX 171700 AAA
TAFJFK
TAF AMD
KJFK 171759Z 1718/1824 12014G22KT P6SM BKN040 BKN250
     FM180200 10014KT P6SM BKN025 BKN250
     FM180900 06008KT P6SM BKN015 BKN250
     FM181400 09008KT P6SM SCT015 BKN250
     FM181800 13012KT P6SM SCT015 BKN250=



000
FTUS41 KOKX 171700 CCA
TAFLGA
TAF COR
KLGA 171733Z 1718/1818 04012KT P6SM SCT040 SCT250
     FM180200 06012KT P6SM FEW020 BKN250
     FM180500 04008KT P6SM BKN015 BKN250
     FM181200 05006KT P6SM BKN250
     FM181500 08006KT P6SM BKN250=



000
FTUS41 KOKX 171700
TAFJFK
TAF
KJFK 171731Z 1718/1824 14015G21KT P6SM SCT040 SCT250
     FM172000 13015G21KT P6SM SCT025 SCT250
      TEMPO 1721/1801 BKN025
     FM180200 06014KT P6SM BKN025 BKN250
     FM180900 06008KT P6SM BKN015 BKN250
     FM181400 09008KT P6SM SCT015 BKN250
     FM181800 13012KT P6SM SCT015 BKN250=



000
FTUS41 KOKX 171700
TAFEWR
TAF
KEWR 171731Z 1718/1824 15009G15KT P6SM SCT040 SCT250
     FM180200 09014KT P6SM BKN025 BKN250
     FM180800 04006KT P6SM BKN015 BKN250
     FM181400 09008KT P6SM SCT015 BKN250
     FM181800 14008KT P6SM SCT015 BKN250=



000
FTUS41 KOKX 171700
TAFGON
TAF
KGON 171731Z 1718/1818 06008G18KT P6SM FEW040 SCT250
     FM180400 06012KT P6SM FEW030 BKN250
     FM180900 05008KT P6SM BKN020 BKN250
     FM181700 15006KT P6SM BKN025 BKN250=



000
FTUS41 KOKX 171700
TAFISP
TAF
KISP 171731Z 1718/1818 11007KT P6SM SCT025 SCT250
     FM171900 12012KT P6SM SCT025 BKN250
     FM180200 08010KT P6SM BKN025 BKN250
     FM180800 06005KT P6SM BKN015 BKN250
     FM181400 08008KT P6SM SCT015 BKN250
     FM181700 14008KT P6SM SCT015 BKN250=



000
FTUS41 KOKX 171700
TAFSWF
TAF
KSWF 171731Z 1718/1824 14013KT P6SM FEW040 SCT250
     FM180400 VRB04KT P6SM FEW030 SCT250
     FM181500 12006KT P6SM FEW030 BKN250
     FM181800 15006KT P6SM FEW030 BKN250
      AMD NOT SKED=



000
FTUS41 KOKX 171700
TAFLGA
TAF
KLGA 171731Z 1718/1818 09020KT P6SM SCT040 SCT250
     FM180200 06012KT P6SM FEW020 BKN250
     FM180500 04008KT P6SM BKN015 BKN250
     FM181200 05006KT P6SM BKN250
     FM181500 08006KT P6SM BKN250=



000
FTUS41 KOKX 171700
TAFBDR
TAF
KBDR 171731Z 1718/1818 14015KT P6SM FEW040 SCT250
     FM180200 06010KT P6SM FEW020 BKN250
     FM180500 05008KT P6SM BKN015 BKN250
     FM181400 11008KT P6SM SCT015 BKN250
     FM181700 13008KT P6SM SCT015 BKN250=



000
FTUS41 KOKX 171700
TAFTEB
TAF
KTEB 171731Z 1718/1818 10008KT P6SM SCT040 SCT250
     FM180200 10014KT P6SM BKN025 BKN250
     FM180900 04006KT P6SM BKN015 BKN250
     FM181400 11008KT P6SM SCT015 BKN250
     FM181700 14008KT P6SM SCT015 BKN250=



000
FTUS41 KOKX 171600 AAB
TAFEWR
TAF AMD
KEWR 171655Z 1717/1818 14010KT P6SM FEW045 BKN250
     FM180200 06010KT P6SM FEW020 BKN250
     FM180900 04006KT P6SM BKN020 BKN250
     FM181400 12008KT P6SM SCT020 BKN250=



000
FTUS41 KOKX 171500 AAB
TAFJFK
TAF AMD
KJFK 171550Z 1716/1818 13015G21KT P6SM SCT250
     FM172000 13015G21KT P6SM SCT025 SCT250
      TEMPO 1721/1801 BKN025
     FM180200 06014KT P6SM BKN025 BKN250
     FM180900 06008KT P6SM BKN015 BKN250
     FM181400 09008KT P6SM SCT015 BKN250=



000
FTUS41 KOKX 171400 AAB
TAFBDR
TAF AMD
KBDR 171458Z 1715/1812 10012KT P6SM SCT250
     FM171800 09016KT P6SM FEW040 SCT250
     FM180200 06010KT P6SM FEW020 BKN250
     FM180800 05008KT P6SM BKN015 BKN250=



000
FTUS41 KOKX 171400 AAA
TAFLGA
TAF AMD
KLGA 171417Z 1714/1812 05018KT P6SM SCT250
     FM171700 09020KT P6SM FEW040 SCT250
     FM180200 06012KT P6SM FEW020 BKN250
     FM180900 04008KT P6SM BKN015 BKN250=



000
FTUS41 KOKX 171400 AAA
TAFGON
TAF AMD
KGON 171417Z 1714/1812 03012KT P6SM SCT250
     FM171500 08015KT P6SM SCT250
     FM171800 09018KT P6SM FEW040 SCT250
     FM180400 06012KT P6SM FEW030 BKN250
     FM180900 05008KT P6SM BKN020 BKN250=



000
FTUS41 KOKX 171400 AAA
TAFSWF
TAF AMD
KSWF 171417Z 1714/1818 09010KT P6SM SCT250
     FM171600 12013KT P6SM FEW040 SCT250
     FM180400 VRB04KT P6SM FEW030 SCT250
     FM181500 12006KT P6SM FEW030 BKN250
      AMD NOT SKED=



000
FTUS41 KOKX 171400 AAA
TAFBDR
TAF AMD
KBDR 171417Z 1714/1812 06012KT P6SM SCT250
     FM171800 09016KT P6SM FEW040 SCT250
     FM180200 06010KT P6SM FEW020 BKN250
     FM180800 05008KT P6SM BKN015 BKN250=



000
FTUS41 KOKX 171400 AAA
TAFISP
TAF AMD
KISP 171417Z 1714/1812 05008KT P6SM BKN250
     FM171500 08015KT P6SM FEW040 SCT250
     FM171800 09018KT P6SM SCT025 SCT250
     FM180200 08010KT P6SM SCT025 BKN250
     FM180800 06005KT P6SM BKN015 BKN250=



000
FTUS41 KOKX 171400 AAA
TAFJFK
TAF AMD
KJFK 171417Z 1714/1818 07015KT P6SM SCT250
     FM171900 09020KT P6SM SCT025 SCT250
     FM180200 06014KT P6SM SCT020 BKN250
     FM180900 06008KT P6SM BKN015 BKN250
     FM181400 09008KT P6SM SCT015 BKN250=



000
FTUS41 KOKX 171400 AAA
TAFTEB
TAF AMD
KTEB 171417Z 1714/1812 08008KT P6SM FEW040 SCT250
     FM171900 12011KT P6SM FEW040 SCT250
     FM180200 08006KT P6SM FEW020 BKN250
     FM180900 04003KT P6SM BKN020 BKN250=



000
FTUS41 KOKX 171400 AAA
TAFEWR
TAF AMD
KEWR 171417Z 1714/1818 03010KT P6SM SCT250
     FM171700 09013KT P6SM FEW040 SCT250
     FM180200 06010KT P6SM FEW020 BKN250
     FM180900 04006KT P6SM BKN020 BKN250
     FM181400 12008KT P6SM SCT020 BKN250=



    US Dept of Commerce
    National Oceanic and Atmospheric Administration
    National Weather Service
    1325 East West Highway
    Silver Spring, MD 20910
    Page Author: NWS Internet Services Team
Disclaimer
Information Quality
Credits
Glossary
Privacy Policy
Freedom of Information Act (FOIA)
About Us
Career Opportunities